createdAt,value
2019-02-08T00:01:30.489Z,2.80
2019-02-08T00:03:59.657Z,3.73
2019-02-08T00:06:29.139Z,7.27
2019-02-08T00:08:58.652Z,4.83
2019-02-08T00:11:27.978Z,5.67
2019-02-08T00:13:57.078Z,3.77
2019-02-08T00:16:26.440Z,3.20
2019-02-08T00:18:55.500Z,4.97
2019-02-08T00:21:24.715Z,3.10
2019-02-08T00:23:54.232Z,4.73
2019-02-08T00:26:23.331Z,6.53
2019-02-08T00:28:52.671Z,4.77
2019-02-08T00:31:21.874Z,5.17
2019-02-08T00:33:51.076Z,3.70
2019-02-08T00:36:20.457Z,3.93
2019-02-08T00:38:49.623Z,5.63
2019-02-08T00:41:18.936Z,4.27
2019-02-08T00:43:47.972Z,5.47
2019-02-08T00:46:17.226Z,4.53
2019-02-08T00:48:46.800Z,4.83
2019-02-08T00:51:15.844Z,6.67
2019-02-08T00:53:45.136Z,5.57
2019-02-08T00:56:14.500Z,5.10
2019-02-08T00:58:43.456Z,5.07
2019-02-08T01:01:13.233Z,3.07
2019-02-08T01:03:43.023Z,4.33
2019-02-08T01:06:15.058Z,5.27
2019-02-08T01:08:44.773Z,3.90
2019-02-08T01:11:14.525Z,6.20
2019-02-08T01:13:45.282Z,5.67
2019-02-08T01:16:14.656Z,5.20
2019-02-08T01:18:44.278Z,4.20
2019-02-08T01:21:13.287Z,4.60
2019-02-08T01:23:42.695Z,5.27
2019-02-08T01:26:12.200Z,4.50
2019-02-08T01:28:41.228Z,5.53
2019-02-08T01:31:10.559Z,3.63
2019-02-08T01:33:39.967Z,3.40
2019-02-08T01:36:09.069Z,6.40
2019-02-08T01:38:38.375Z,5.03
2019-02-08T01:41:07.413Z,4.13
2019-02-08T01:43:36.865Z,6.93
2019-02-08T01:46:06.302Z,5.30
2019-02-08T01:48:36.086Z,3.93
2019-02-08T01:51:05.751Z,4.23
2019-02-08T01:53:35.152Z,6.37
2019-02-08T01:56:05.041Z,7.23
2019-02-08T01:58:34.462Z,3.97
2019-02-08T02:01:03.799Z,8.03
2019-02-08T02:03:33.041Z,6.20
2019-02-08T02:06:02.190Z,7.07
2019-02-08T02:08:31.293Z,4.77
2019-02-08T02:11:00.569Z,5.53
2019-02-08T02:13:29.634Z,5.60
2019-02-08T02:15:58.685Z,3.60
2019-02-08T02:18:27.727Z,4.30
2019-02-08T02:20:56.768Z,4.13
2019-02-08T02:23:26.122Z,5.17
2019-02-08T02:25:55.583Z,7.30
2019-02-08T02:28:24.863Z,7.23
2019-02-08T02:30:53.783Z,4.70
2019-02-08T02:33:22.812Z,2.03
2019-02-08T02:35:52.079Z,4.10
2019-02-08T02:38:21.131Z,5.20
2019-02-08T02:40:50.450Z,6.30
2019-02-08T02:43:19.878Z,6.83
2019-02-08T02:45:48.878Z,3.77
2019-02-08T02:48:18.234Z,3.60
2019-02-08T02:50:47.185Z,5.83
2019-02-08T02:53:16.427Z,3.80
2019-02-08T02:55:45.433Z,2.53
2019-02-08T02:58:14.542Z,3.87
2019-02-08T03:00:45.684Z,3.57
2019-02-08T03:03:16.767Z,5.63
2019-02-08T03:05:46.932Z,4.50
2019-02-08T03:08:17.390Z,7.60
2019-02-08T03:10:47.035Z,2.97
2019-02-08T03:13:16.812Z,6.67
2019-02-08T03:15:46.329Z,6.30
2019-02-08T03:18:15.772Z,3.30
2019-02-08T03:20:45.695Z,3.93
2019-02-08T03:23:17.058Z,4.00
2019-02-08T03:25:46.637Z,5.50
2019-02-08T03:28:16.010Z,2.10
2019-02-08T03:30:50.836Z,3.37
2019-02-08T03:33:19.939Z,3.80
2019-02-08T03:35:49.272Z,2.47
2019-02-08T03:38:18.399Z,3.33
2019-02-08T03:40:47.413Z,3.83
2019-02-08T03:43:16.775Z,3.80
2019-02-08T03:45:46.944Z,4.60
2019-02-08T03:48:16.168Z,3.37
2019-02-08T03:50:45.284Z,4.97
2019-02-08T03:53:14.307Z,3.80
2019-02-08T03:55:43.325Z,2.40
2019-02-08T03:58:12.495Z,5.93
2019-02-08T04:00:45.589Z,4.17
2019-02-08T04:03:14.956Z,4.07
2019-02-08T04:05:44.511Z,6.47
2019-02-08T04:08:13.958Z,4.77
2019-02-08T04:10:43.103Z,5.30
2019-02-08T04:13:12.382Z,4.27
2019-02-08T04:15:41.592Z,4.27
2019-02-08T04:18:10.685Z,4.57
2019-02-08T04:20:39.947Z,3.07
2019-02-08T04:23:08.962Z,3.83
2019-02-08T04:25:38.255Z,6.13
2019-02-08T04:28:07.754Z,3.03
2019-02-08T04:30:37.161Z,5.17
2019-02-08T04:33:06.621Z,4.90
2019-02-08T04:35:35.651Z,5.70
2019-02-08T04:38:04.890Z,4.73
2019-02-08T04:40:33.891Z,3.97
2019-02-08T04:43:03.280Z,3.93
2019-02-08T04:45:32.736Z,5.37
2019-02-08T04:48:01.820Z,5.10
2019-02-08T04:50:31.139Z,6.23
2019-02-08T04:53:00.141Z,3.87
2019-02-08T04:55:29.233Z,6.50
2019-02-08T04:57:58.247Z,4.37
2019-02-08T05:00:29.310Z,4.80
2019-02-08T05:02:58.455Z,6.57
2019-02-08T05:05:27.645Z,7.20
2019-02-08T05:07:57.077Z,6.70
2019-02-08T05:10:27.504Z,5.93
2019-02-08T05:12:56.536Z,7.33
2019-02-08T05:15:25.904Z,3.63
2019-02-08T05:17:54.997Z,8.80
2019-02-08T05:20:25.267Z,5.90
2019-02-08T05:22:54.839Z,8.67
2019-02-08T05:25:24.186Z,5.27
2019-02-08T05:27:53.573Z,8.80
2019-02-08T05:30:29.383Z,4.30
2019-02-08T05:32:58.500Z,4.83
2019-02-08T05:35:30.167Z,11.30
2019-02-08T05:37:59.780Z,7.33
2019-02-08T05:40:29.258Z,3.37
2019-02-08T05:42:58.431Z,2.60
2019-02-08T05:45:27.545Z,7.57
2019-02-08T05:47:56.530Z,4.67
2019-02-08T05:50:26.903Z,4.83
2019-02-08T05:52:56.143Z,7.47
2019-02-08T05:55:26.860Z,3.77
2019-02-08T05:57:55.980Z,5.90
2019-02-08T06:00:36.776Z,5.37
2019-02-08T06:03:06.940Z,7.10
2019-02-08T06:05:36.897Z,4.50
2019-02-08T06:08:07.306Z,6.73
2019-02-08T06:10:36.726Z,6.03
2019-02-08T06:13:07.320Z,7.57
2019-02-08T06:15:36.447Z,5.30
2019-02-08T06:18:06.265Z,4.90
2019-02-08T06:20:35.351Z,12.83
2019-02-08T06:23:04.997Z,6.23
2019-02-08T06:25:34.022Z,5.60
2019-02-08T06:28:03.188Z,6.23
2019-02-08T06:30:32.305Z,3.97
2019-02-08T06:33:01.379Z,7.80
2019-02-08T06:35:31.043Z,5.77
2019-02-08T06:38:00.064Z,6.73
2019-02-08T06:40:29.789Z,3.97
2019-02-08T06:42:58.759Z,4.50
2019-02-08T06:45:28.412Z,7.10
2019-02-08T06:47:57.473Z,2.80
2019-02-08T06:50:26.753Z,2.17
2019-02-08T06:52:55.760Z,2.63
2019-02-08T06:55:24.968Z,5.17
2019-02-08T06:58:09.484Z,3.93
2019-02-08T07:00:52.535Z,7.13
2019-02-08T07:03:43.512Z,5.53
2019-02-08T07:06:46.930Z,8.50
2019-02-08T07:09:27.419Z,5.40
2019-02-08T07:12:13.860Z,4.73
2019-02-08T07:15:00.668Z,5.80
2019-02-08T07:17:35.469Z,10.03
2019-02-08T07:20:16.916Z,2.67
2019-02-08T07:22:57.265Z,8.40
2019-02-08T07:25:44.012Z,20.73
2019-02-08T07:28:28.679Z,50.00
2019-02-08T07:31:31.664Z,18.23
2019-02-08T07:34:31.832Z,74.77
2019-02-08T07:37:13.091Z,43.07
2019-02-08T07:40:15.484Z,26.77
2019-02-08T07:43:04.215Z,17.47
2019-02-08T07:45:48.118Z,8.97
2019-02-08T07:48:39.376Z,10.07
2019-02-08T07:51:27.499Z,15.37
2019-02-08T07:54:08.684Z,12.40
2019-02-08T08:00:59.297Z,10.30
2019-02-08T08:03:46.691Z,14.13
2019-02-08T08:06:29.214Z,5.90
2019-02-08T08:09:16.091Z,17.00
2019-02-08T08:12:00.820Z,64.43
2019-02-08T08:14:46.956Z,83.00
2019-02-08T08:17:40.766Z,32.87
2019-02-08T08:20:41.638Z,44.80
2019-02-08T08:23:19.043Z,10.23
2019-02-08T08:26:09.545Z,5.50
2019-02-08T08:29:00.326Z,4.93
2019-02-08T08:31:52.720Z,7.93
2019-02-08T08:34:34.584Z,7.70
2019-02-08T08:37:16.982Z,7.57
2019-02-08T08:40:40.766Z,14.00
2019-02-08T08:43:54.666Z,14.83
2019-02-08T08:47:07.426Z,10.40
2019-02-08T08:49:56.879Z,9.93
2019-02-08T08:53:17.662Z,14.43
2019-02-08T08:56:09.032Z,6.33
2019-02-08T08:59:02.352Z,12.73
2019-02-08T09:01:44.689Z,6.33
2019-02-08T09:04:41.834Z,8.20
2019-02-08T09:07:47.949Z,11.70
2019-02-08T09:10:44.023Z,9.60
2019-02-08T09:13:40.066Z,4.93
2019-02-08T09:16:40.596Z,9.83
2019-02-08T09:19:42.035Z,5.13
2019-02-08T09:22:23.647Z,6.87
2019-02-08T09:25:37.142Z,3.57
2019-02-08T09:28:33.719Z,4.77
2019-02-08T09:31:18.971Z,7.80
2019-02-08T09:34:28.111Z,8.97
2019-02-08T09:37:51.009Z,5.10
2019-02-08T09:40:43.158Z,3.30
2019-02-08T09:43:54.988Z,4.00
2019-02-08T09:46:53.128Z,4.03
2019-02-08T09:50:15.245Z,4.03
2019-02-08T09:53:08.721Z,5.37
2019-02-08T09:56:19.191Z,2.37
2019-02-08T09:59:14.521Z,4.67
2019-02-08T10:02:23.813Z,6.20
2019-02-08T10:05:46.103Z,3.93
2019-02-08T10:08:54.838Z,3.73
2019-02-08T10:11:49.655Z,5.57
2019-02-08T10:14:57.291Z,7.07
2019-02-08T10:17:57.927Z,7.73
2019-02-08T10:20:56.355Z,6.63
2019-02-08T10:24:04.027Z,6.03
2019-02-08T10:27:06.274Z,7.97
2019-02-08T10:30:12.775Z,4.30
2019-02-08T10:33:11.169Z,8.97
2019-02-08T10:36:15.474Z,5.97
2019-02-08T10:39:25.832Z,3.23
2019-02-08T10:42:42.617Z,3.37
2019-02-08T10:45:51.545Z,4.57
2019-02-08T10:49:15.180Z,2.57
2019-02-08T10:52:26.359Z,12.23
2019-02-08T10:55:43.823Z,3.53
2019-02-08T10:59:08.206Z,6.03
2019-02-08T11:02:12.533Z,4.90
2019-02-08T11:05:25.436Z,3.63
2019-02-08T11:08:21.530Z,5.10
2019-02-08T11:11:27.625Z,4.43
2019-02-08T11:14:36.640Z,1.27
2019-02-08T11:17:51.753Z,1.90
2019-02-08T11:20:20.914Z,4.80
2019-02-08T11:22:49.755Z,3.00
2019-02-08T11:25:18.982Z,6.93
2019-02-08T11:27:48.891Z,7.37
2019-02-08T11:30:18.284Z,4.23
2019-02-08T11:32:47.062Z,3.00
2019-02-08T11:35:16.659Z,11.33
2019-02-08T11:37:45.576Z,2.87
2019-02-08T11:40:18.466Z,11.50
2019-02-08T11:42:47.318Z,5.47
2019-02-08T11:45:16.843Z,7.83
2019-02-08T11:47:45.674Z,7.80
2019-02-08T11:50:16.922Z,8.97
2019-02-08T11:52:46.069Z,10.60
2019-02-08T11:55:15.318Z,15.37
2019-02-08T11:57:44.229Z,7.50
2019-02-08T12:00:17.309Z,4.17
2019-02-08T12:02:46.390Z,9.53
2019-02-08T12:05:15.306Z,6.83
2019-02-08T12:07:44.327Z,5.03
2019-02-08T12:10:13.247Z,4.90
2019-02-08T12:12:42.245Z,3.37
2019-02-08T12:15:13.159Z,3.60
2019-02-08T12:17:42.161Z,3.30
2019-02-08T12:20:11.181Z,2.80
2019-02-08T12:22:40.279Z,1.77
2019-02-08T12:25:10.165Z,4.03
2019-02-08T12:27:39.158Z,3.43
2019-02-08T12:30:11.606Z,10.83
2019-02-08T12:32:40.646Z,3.13
2019-02-08T12:35:10.015Z,2.47
2019-02-08T12:37:38.783Z,6.33
2019-02-08T12:40:08.009Z,1.90
2019-02-08T12:42:36.854Z,12.57
2019-02-08T12:45:06.569Z,4.50
2019-02-08T12:47:35.580Z,1.53
2019-02-08T12:50:05.419Z,1.87
2019-02-08T12:52:34.516Z,9.37
2019-02-08T12:55:03.368Z,9.33
2019-02-08T12:57:32.140Z,5.67
2019-02-08T13:00:01.086Z,3.60
2019-02-08T13:02:30.269Z,4.93
2019-02-08T13:04:59.290Z,1.17
2019-02-08T13:07:28.597Z,4.60
2019-02-08T13:09:57.618Z,2.13
2019-02-08T13:12:26.396Z,1.97
2019-02-08T13:14:55.398Z,3.90
2019-02-08T13:17:24.162Z,4.70
2019-02-08T13:19:52.942Z,1.87
2019-02-08T13:22:22.051Z,3.97
2019-02-08T13:24:50.870Z,3.30
2019-02-08T13:27:19.720Z,4.30
2019-02-08T13:29:48.759Z,3.27
2019-02-08T13:32:17.534Z,2.60
2019-02-08T13:34:46.541Z,3.53
2019-02-08T13:37:15.699Z,5.00
2019-02-08T13:39:44.542Z,8.40
2019-02-08T13:42:13.640Z,12.90
2019-02-08T13:44:42.697Z,17.63
2019-02-08T13:47:11.626Z,11.83
2019-02-08T13:49:40.639Z,1.23
2019-02-08T13:52:09.736Z,12.13
2019-02-08T13:54:38.743Z,5.60
2019-02-08T13:57:07.765Z,16.03
2019-02-08T13:59:36.526Z,4.33
2019-02-08T14:02:05.685Z,5.83
2019-02-08T14:04:34.766Z,9.03
2019-02-08T14:07:03.533Z,4.00
2019-02-08T14:09:32.367Z,5.93
2019-02-08T14:12:01.379Z,6.93
2019-02-08T14:14:30.578Z,5.50
2019-02-08T14:16:59.503Z,8.13
2019-02-08T14:19:28.278Z,2.73
2019-02-08T14:21:57.341Z,9.90
2019-02-08T14:24:26.418Z,6.47
2019-02-08T14:26:55.425Z,5.87
2019-02-08T14:29:24.339Z,5.23
2019-02-08T14:31:53.178Z,2.03
2019-02-08T14:34:22.174Z,3.93
2019-02-08T14:36:51.013Z,3.53
2019-02-08T14:39:19.774Z,3.60
2019-02-08T14:41:48.862Z,2.93
2019-02-08T14:44:18.650Z,2.67
2019-02-08T14:46:47.735Z,3.07
2019-02-08T14:49:16.878Z,3.53
2019-02-08T14:51:45.887Z,3.80
2019-02-08T14:54:14.643Z,4.43
2019-02-08T14:56:43.488Z,3.40
2019-02-08T14:59:14.319Z,3.60
2019-02-08T15:01:43.330Z,2.73
2019-02-08T15:04:12.356Z,3.00
2019-02-08T15:06:41.227Z,4.67
2019-02-08T15:09:11.110Z,2.57
2019-02-08T15:11:39.881Z,19.37
2019-02-08T15:14:08.835Z,11.80
2019-02-08T15:16:37.587Z,35.00
2019-02-08T15:19:06.659Z,9.50
2019-02-08T15:21:35.913Z,13.43
2019-02-08T15:24:05.037Z,8.17
2019-02-08T15:26:33.871Z,4.67
2019-02-08T15:29:02.884Z,6.43
2019-02-08T15:31:31.927Z,2.83
2019-02-08T15:34:00.942Z,2.43
2019-02-08T15:36:30.195Z,2.70
2019-02-08T15:38:59.205Z,3.73
2019-02-08T15:41:28.299Z,2.30
2019-02-08T15:43:57.067Z,5.33
2019-02-08T15:46:25.832Z,5.70
2019-02-08T15:48:55.512Z,6.03
2019-02-08T15:51:24.432Z,7.30
2019-02-08T15:53:53.208Z,5.07
2019-02-08T15:56:22.639Z,6.87
2019-02-08T15:58:51.561Z,14.50
2019-02-08T16:01:20.475Z,6.03
2019-02-08T16:03:49.520Z,3.60
2019-02-08T16:06:18.522Z,3.77
2019-02-08T16:08:47.638Z,6.67
2019-02-08T16:11:16.406Z,9.73
2019-02-08T16:13:45.414Z,8.33
2019-02-08T16:16:14.561Z,5.13
2019-02-08T16:18:43.402Z,3.63
2019-02-08T16:21:12.418Z,10.77
2019-02-08T16:23:41.266Z,10.50
2019-02-08T16:26:10.183Z,20.47
2019-02-08T16:28:39.193Z,5.03
2019-02-08T16:31:08.399Z,3.77
2019-02-08T16:33:37.416Z,7.63
2019-02-08T16:36:06.587Z,3.60
2019-02-08T16:38:35.434Z,7.03
2019-02-08T16:41:04.898Z,7.17
2019-02-08T16:43:33.919Z,7.40
2019-02-08T16:46:02.823Z,2.13
2019-02-08T16:48:31.603Z,3.80
2019-02-08T16:51:00.557Z,4.20
2019-02-08T16:53:29.465Z,6.10
2019-02-08T16:55:59.675Z,5.37
2019-02-08T16:58:28.642Z,7.63
2019-02-08T17:00:57.495Z,5.07
2019-02-08T17:03:26.271Z,3.03
2019-02-08T17:05:55.041Z,3.00
2019-02-08T17:08:24.039Z,4.87
2019-02-08T17:10:53.115Z,3.47
2019-02-08T17:13:22.105Z,5.10
2019-02-08T17:15:50.944Z,6.67
2019-02-08T17:18:19.706Z,5.87
2019-02-08T17:20:49.462Z,3.47
2019-02-08T17:23:18.533Z,4.83
2019-02-08T17:25:47.378Z,4.27
2019-02-08T17:28:16.134Z,3.20
2019-02-08T17:30:44.980Z,4.90
2019-02-08T17:33:14.052Z,7.07
2019-02-08T17:35:42.805Z,3.83
2019-02-08T17:38:11.719Z,6.23
2019-02-08T17:40:42.612Z,5.53
2019-02-08T17:43:11.763Z,5.47
2019-02-08T17:45:40.530Z,3.97
2019-02-08T17:48:12.182Z,5.40
2019-02-08T17:50:41.254Z,3.53
2019-02-08T17:53:10.271Z,6.10
2019-02-08T17:55:39.101Z,3.10
2019-02-08T17:58:08.507Z,4.87
2019-02-08T18:00:42.454Z,3.03
2019-02-08T18:03:11.267Z,33.60
2019-02-08T18:05:40.630Z,19.17
2019-02-08T18:08:09.791Z,9.97
2019-02-08T18:10:38.707Z,4.73
2019-02-08T18:13:07.867Z,8.87
2019-02-08T18:15:36.633Z,7.80
2019-02-08T18:18:06.714Z,6.23
2019-02-08T18:20:37.943Z,3.63
2019-02-08T18:23:07.019Z,3.80
2019-02-08T18:25:35.871Z,2.73
2019-02-08T18:28:10.776Z,5.13
2019-02-08T18:30:36.028Z,6.97
2019-02-08T18:33:04.938Z,2.83
2019-02-08T18:35:33.856Z,5.23
2019-02-08T18:38:03.019Z,3.67
2019-02-08T18:40:32.235Z,3.20
2019-02-08T18:43:01.247Z,5.13
2019-02-08T18:45:30.275Z,4.40
2019-02-08T18:47:59.281Z,2.33
2019-02-08T18:50:39.846Z,3.70
2019-02-08T18:53:08.750Z,7.30
2019-02-08T18:55:37.759Z,5.13
2019-02-08T18:58:07.119Z,8.20
2019-02-08T19:00:40.117Z,5.27
2019-02-08T19:03:09.226Z,5.77
2019-02-08T19:05:38.639Z,11.33
2019-02-08T19:08:07.783Z,3.53
2019-02-08T19:10:36.538Z,4.40
2019-02-08T19:13:05.702Z,6.93
2019-02-08T19:15:34.846Z,4.57
2019-02-08T19:18:03.959Z,4.10
2019-02-08T19:20:33.028Z,4.37
2019-02-08T19:23:01.791Z,5.07
2019-02-08T19:25:35.590Z,4.57
2019-02-08T19:28:04.775Z,3.17
2019-02-08T19:30:35.231Z,3.03
2019-02-08T19:33:04.722Z,4.43
2019-02-08T19:35:34.131Z,2.47
2019-02-08T19:38:03.201Z,1.97
2019-02-08T19:40:33.942Z,1.87
2019-02-08T19:43:03.140Z,1.83
2019-02-08T19:45:31.919Z,1.47
2019-02-08T19:48:00.835Z,1.67
2019-02-08T19:50:34.339Z,3.53
2019-02-08T19:53:03.438Z,1.77
2019-02-08T19:55:32.694Z,1.40
2019-02-08T19:58:01.468Z,3.97
2019-02-08T20:00:32.214Z,3.30
2019-02-08T20:03:01.310Z,1.50
2019-02-08T20:05:30.338Z,1.37
2019-02-08T20:07:59.243Z,1.67
2019-02-08T20:10:33.111Z,0.80
2019-02-08T20:13:02.269Z,1.30
2019-02-08T20:15:31.447Z,1.10
2019-02-08T20:18:00.455Z,1.07
2019-02-08T20:20:29.378Z,1.63
2019-02-08T20:22:58.543Z,1.60
2019-02-08T20:25:29.921Z,2.27
2019-02-08T20:27:58.699Z,1.53
2019-02-08T20:30:28.790Z,1.83
2019-02-08T20:32:57.689Z,2.23
2019-02-08T20:35:27.169Z,4.20
2019-02-08T20:37:56.341Z,1.67
2019-02-08T20:40:27.890Z,2.17
2019-02-08T20:42:56.758Z,1.40
2019-02-08T20:45:27.488Z,1.40
2019-02-08T20:47:57.506Z,1.50
2019-02-08T20:50:26.663Z,1.70
2019-02-08T20:52:55.802Z,3.73
2019-02-08T20:55:26.255Z,1.63
2019-02-08T20:57:55.437Z,3.67
2019-02-08T21:00:34.903Z,3.83
2019-02-08T21:03:05.465Z,3.90
2019-02-08T21:05:34.710Z,2.67
2019-02-08T21:08:04.455Z,1.80
2019-02-08T21:10:33.541Z,4.47
2019-02-08T21:13:02.464Z,4.07
2019-02-08T21:15:31.649Z,2.77
2019-02-08T21:18:00.706Z,1.57
2019-02-08T21:20:29.466Z,2.60
2019-02-08T21:22:58.533Z,2.10
2019-02-08T21:25:29.008Z,2.43
2019-02-08T21:27:57.933Z,1.30
2019-02-08T21:30:27.050Z,3.70
2019-02-08T21:32:56.315Z,2.83
2019-02-08T21:35:25.242Z,1.77
2019-02-08T21:37:54.737Z,2.63
2019-02-08T21:40:25.589Z,2.87
2019-02-08T21:42:54.621Z,2.57
2019-02-08T21:45:26.223Z,1.47
2019-02-08T21:47:55.078Z,3.47
2019-02-08T21:50:24.345Z,2.67
2019-02-08T21:52:53.504Z,3.63
2019-02-08T21:55:23.158Z,3.77
2019-02-08T21:57:52.264Z,3.33
2019-02-08T22:00:24.078Z,2.47
2019-02-08T22:02:53.467Z,2.13
2019-02-08T22:05:24.774Z,2.97
2019-02-08T22:07:53.850Z,4.00
2019-02-08T22:10:23.005Z,3.90
2019-02-08T22:12:52.172Z,3.80
2019-02-08T22:15:24.343Z,5.30
2019-02-08T22:17:53.374Z,3.40
2019-02-08T22:20:22.279Z,2.73
2019-02-08T22:22:51.059Z,1.20
2019-02-08T22:25:21.133Z,2.90
2019-02-08T22:27:49.938Z,2.80
2019-02-08T22:30:20.588Z,3.27
2019-02-08T22:32:50.163Z,1.97
2019-02-08T22:35:21.195Z,2.50
2019-02-08T22:37:50.114Z,3.43
2019-02-08T22:40:19.939Z,2.57
2019-02-08T22:42:49.156Z,3.17
2019-02-08T22:45:20.783Z,3.40
2019-02-08T22:47:49.802Z,2.80
2019-02-08T22:50:18.815Z,2.33
2019-02-08T22:52:47.675Z,1.70
2019-02-08T22:55:18.135Z,2.73
2019-02-08T22:57:47.313Z,2.67
2019-02-08T23:01:06.263Z,2.83
2019-02-08T23:03:36.586Z,2.47
2019-02-08T23:06:07.370Z,2.87
2019-02-08T23:08:36.510Z,2.13
2019-02-08T23:11:05.710Z,3.33
2019-02-08T23:13:34.923Z,2.77
2019-02-08T23:16:05.043Z,2.87
2019-02-08T23:18:34.267Z,2.40
2019-02-08T23:21:03.429Z,4.77
2019-02-08T23:23:32.759Z,3.83
2019-02-08T23:26:01.603Z,3.13
2019-02-08T23:28:30.744Z,4.50
2019-02-08T23:30:59.510Z,3.50
2019-02-08T23:33:28.367Z,2.27
2019-02-08T23:35:57.447Z,3.30
2019-02-08T23:38:26.479Z,3.43
2019-02-08T23:40:55.742Z,1.93
2019-02-08T23:43:24.666Z,2.03
2019-02-08T23:45:53.434Z,2.27
2019-02-08T23:48:22.515Z,1.60
2019-02-08T23:50:51.290Z,2.73
2019-02-08T23:53:20.046Z,2.17
2019-02-08T23:55:49.078Z,1.40
2019-02-08T23:58:17.931Z,1.97
